Oakland, NJ (07436)

8:53 AM EDT on May 06, 2015 (GMT -0400)
83 Oakland-Hiawatha Blvd | | Change Station
CLOSE
Current Station
Personal Weather Station
Location: Oakland-Hiawatha, NJ
Elevation: 295 ft
Nearby Weather Stations

Elev 295 ft 41.03 °N, 74.24 °W | Updated 11 seconds ago

Overcast
Overcast
61.9 °F
Feels Like 61.9 °F
N
3.6
Wind Variable Wind from ENE
Gusts 3.6 mph

Today
High -- | Low -- °F
--% Chance of Precip.
Yesterday
High -- | Low -- °F
Precip. -- in
5:49 AM 7:58 PM
Waning Gibbous, 94% visible
Pressure 30.30 in
Visibility 10.0 miles
Clouds Overcast 7500 ft
Dew Point 44 °F
Humidity 51%
Rainfall 0.00 in
Snow Depth Not available.
UV 1 out of 12
Pollen 3.80 out of 12
Air Quality Not available.
Flu Activity Local Activity
METAR KCDW 061153Z 04004KT 10SM OVC075 17/08 A3029 RMK AO2 RAE1058B22E49 SLP260 P0000 60000 T01670078 10194 20167 53023

More Conditions Fewer Conditions

Pressure 30.30 in
Visibility 10.0 miles
Clouds Overcast 7500 ft
Dew Point 44 °F
Humidity 51%
Rainfall 0.00 in
Snow Depth Not available.
UV 1 out of 12
Pollen 3.80 out of 12
Air Quality Not available.
Flu Activity Local Activity
METAR KCDW 061153Z 04004KT 10SM OVC075 17/08 A3029 RMK AO2 RAE1058B22E49 SLP260 P0000 60000 T01670078 10194 20167 53023

More Conditions Fewer Conditions

10-Day Weather Forecast

Almanac

Astronomy

May. 06, 2015 Rise Set
Actual Time
Civil Twilight
Nautical Twilight
Astronomical Twilight
Moon
Length of Visible Light
Length of Day
Tomorrow will be .
, % of the Moon is Illuminated

Today's Extremes

State Highs State Lows

Community

WunderPhotos

Upload Photos

1,818,884 photos uploaded!

WunderBlogs® & News

Nearby

Air Quality

  Air Quality AQ Index Pollutant
Not available.

Snow Depth

Station Depth Elevation

Earthquake Activity

City Distance Mag. Time & Date
Minimum magnitude displayed is 2.5.

Coastal Water Temperatures

Place Temperature

Stations

Nearby Weather Stations

Station Location Temp. Windchill Dew Point Humidity Wind Precip. Elev Updated Type